Time;durP1;ratioP1;P1;durP2;ratioP2;P2;SDS_P1;SDS_P2;PMS_P1;PMS_P2;Temp;Humidity;BMP_temperature;BMP_pressure;BME280_temperature;BME280_humidity;BME280_pressure;Samples;Min_cycle;Max_cycle;Signal;HPM_P1;HPM_P2
2023/03/18 00:01:36;;;;;;;13.57;9.23;;;7.50;50.80;;;;;;5052217;28;20232;-68
2023/03/18 00:04:05;;;;;;;12.73;8.70;;;7.50;50.80;;;;;;5052303;28;20233;-65
2023/03/18 00:06:35;;;;;;;15.77;8.90;;;7.40;50.80;;;;;;5052270;28;20697;-68
2023/03/18 00:09:05;;;;;;;14.87;9.10;;;7.50;50.90;;;;;;5052307;28;20202;-66
2023/03/18 00:11:34;;;;;;;19.57;9.43;;;7.50;50.70;;;;;;5052103;28;20559;-68
2023/03/18 00:14:04;;;;;;;13.27;8.17;;;7.40;50.60;;;;;;5051792;28;20202;-68
2023/03/18 00:16:33;;;;;;;16.03;9.00;;;7.40;51.10;;;;;;5052322;28;20225;-67
2023/03/18 00:19:02;;;;;;;12.67;9.33;;;7.40;50.80;;;;;;5052319;28;20209;-66
2023/03/18 00:21:31;;;;;;;17.00;9.03;;;7.40;51.00;;;;;;5052122;28;20197;-65
2023/03/18 00:24:00;;;;;;;16.87;8.40;;;7.30;51.00;;;;;;5051750;28;20218;-65
2023/03/18 00:26:29;;;;;;;12.23;9.30;;;7.40;51.10;;;;;;5051957;28;20186;-68
2023/03/18 00:28:58;;;;;;;10.47;8.20;;;7.40;50.80;;;;;;5051451;28;20229;-66
2023/03/18 00:31:28;;;;;;;19.47;8.87;;;7.40;51.00;;;;;;5050588;28;20333;-67
2023/03/18 00:33:58;;;;;;;9.67;7.97;;;7.30;51.00;;;;;;5051729;28;20213;-67
2023/03/18 00:36:27;;;;;;;12.13;8.97;;;7.30;51.00;;;;;;5050574;28;20230;-66
2023/03/18 00:38:57;;;;;;;12.80;7.93;;;7.30;51.10;;;;;;5051655;28;20616;-70
2023/03/18 00:41:27;;;;;;;12.17;8.00;;;7.20;51.40;;;;;;5050356;28;20201;-69
2023/03/18 00:43:57;;;;;;;12.40;7.80;;;7.30;51.40;;;;;;5050154;28;20225;-70
2023/03/18 00:46:29;;;;;;;10.77;7.57;;;7.30;51.20;;;;;;5051735;28;20281;-66
2023/03/18 00:48:59;;;;;;;14.27;9.17;;;7.20;51.20;;;;;;5051586;28;20709;-68
2023/03/18 00:51:31;;;;;;;12.37;8.90;;;7.30;51.30;;;;;;5050329;28;20600;-65
2023/03/18 00:54:03;;;;;;;13.10;8.70;;;7.20;51.30;;;;;;5051535;28;20255;-66
2023/03/18 00:56:32;;;;;;;12.37;8.53;;;7.20;51.40;;;;;;5051086;28;20197;-67
2023/03/18 00:59:01;;;;;;;14.07;9.03;;;7.20;51.50;;;;;;5051553;28;20232;-70
2023/03/18 01:01:32;;;;;;;12.40;9.30;;;7.20;51.50;;;;;;5051491;28;20731;-70
2023/03/18 01:04:01;;;;;;;12.70;8.57;;;7.10;51.40;;;;;;5051376;28;20283;-70
2023/03/18 01:06:33;;;;;;;11.20;8.20;;;7.10;51.60;;;;;;5050004;28;20205;-69
2023/03/18 01:09:04;;;;;;;11.93;8.60;;;7.20;51.50;;;;;;5049714;28;20741;-68
2023/03/18 01:11:33;;;;;;;13.53;9.33;;;7.20;51.30;;;;;;5050735;28;20200;-69
2023/03/18 01:14:02;;;;;;;12.97;8.10;;;7.10;51.60;;;;;;5050261;28;20683;-71
2023/03/18 01:16:32;;;;;;;13.30;8.77;;;7.20;51.70;;;;;;5049877;28;20210;-70
2023/03/18 01:19:01;;;;;;;16.93;9.27;;;7.10;51.50;;;;;;5051583;28;20197;-69
2023/03/18 01:21:30;;;;;;;13.27;8.43;;;7.10;51.80;;;;;;5051409;28;20660;-70
2023/03/18 01:24:01;;;;;;;15.20;8.23;;;7.00;51.80;;;;;;5050357;28;20221;-67
2023/03/18 01:26:30;;;;;;;13.93;8.83;;;7.00;51.80;;;;;;5049627;28;20205;-66
2023/03/18 01:29:01;;;;;;;13.87;9.17;;;7.10;51.80;;;;;;5050097;28;20197;-67
2023/03/18 01:31:34;;;;;;;17.27;8.37;;;7.00;51.60;;;;;;5050066;28;20211;-68
2023/03/18 01:34:08;;;;;;;9.93;7.67;;;7.10;51.90;;;;;;5049775;28;20209;-68
2023/03/18 01:36:47;;;;;;;14.43;9.50;;;7.00;51.70;;;;;;5049811;28;20198;-68
2023/03/18 01:39:17;;;;;;;20.83;9.40;;;7.00;51.90;;;;;;5049673;28;20209;-69
2023/03/18 01:41:46;;;;;;;14.13;9.43;;;7.20;51.80;;;;;;5050499;28;20229;-65
2023/03/18 01:44:21;;;;;;;11.87;8.33;;;7.20;51.60;;;;;;5049482;28;20700;-67
2023/03/18 01:46:54;;;;;;;10.63;8.53;;;7.10;51.60;;;;;;5049825;28;20229;-66
2023/03/18 01:49:27;;;;;;;14.37;9.17;;;6.90;51.70;;;;;;5049673;28;20220;-67
2023/03/18 01:52:00;;;;;;;14.57;8.63;;;7.00;52.10;;;;;;5049649;28;20247;-69
2023/03/18 01:54:38;;;;;;;12.90;9.00;;;7.00;52.10;;;;;;5048969;28;20198;-65
2023/03/18 01:57:07;;;;;;;12.83;8.57;;;7.00;52.00;;;;;;5049521;28;20222;-66
2023/03/18 01:59:41;;;;;;;13.30;9.30;;;6.90;52.20;;;;;;5049651;28;20229;-67
2023/03/18 02:02:13;;;;;;;14.10;8.67;;;7.00;52.10;;;;;;5049547;28;20197;-66
2023/03/18 02:04:45;;;;;;;13.57;9.07;;;7.00;52.20;;;;;;5049459;28;20675;-69
2023/03/18 02:07:16;;;;;;;15.73;9.50;;;7.00;52.10;;;;;;5049529;28;20667;-68
2023/03/18 02:09:46;;;;;;;15.17;9.83;;;7.10;52.10;;;;;;5049042;28;20205;-65
2023/03/18 02:12:21;;;;;;;16.90;9.90;;;7.10;52.00;;;;;;5049451;28;20229;-70
2023/03/18 02:14:52;;;;;;;14.50;8.83;;;7.00;52.40;;;;;;5049601;28;20297;-65
2023/03/18 02:17:25;;;;;;;13.70;8.80;;;7.00;52.30;;;;;;5050771;28;20204;-68
2023/03/18 02:20:01;;;;;;;14.63;9.33;;;6.90;52.40;;;;;;5050688;28;20194;-67
2023/03/18 02:22:37;;;;;;;16.57;9.80;;;6.90;52.60;;;;;;5052519;28;20271;-66
2023/03/18 02:25:22;;;;;;;18.27;10.37;;;7.00;52.50;;;;;;5052463;28;20236;-68
2023/03/18 02:27:58;;;;;;;15.47;9.73;;;6.90;52.70;;;;;;5052911;28;20305;-66
2023/03/18 02:30:33;;;;;;;16.17;9.70;;;6.80;52.90;;;;;;5053129;28;20201;-69
2023/03/18 02:33:05;;;;;;;16.73;9.40;;;6.80;52.90;;;;;;5052727;28;20236;-68
2023/03/18 02:35:35;;;;;;;16.13;9.27;;;6.80;52.90;;;;;;5052320;28;20213;-69
2023/03/18 02:38:05;;;;;;;14.00;9.20;;;6.70;53.00;;;;;;5052298;28;20202;-71
2023/03/18 02:40:35;;;;;;;13.93;8.87;;;6.80;53.10;;;;;;5053261;28;20205;-69
2023/03/18 02:43:22;;;;;;;12.50;8.83;;;6.70;52.90;;;;;;5052009;28;20205;-68
2023/03/18 02:46:31;;;;;;;16.77;9.70;;;6.70;53.30;;;;;;5052182;28;20229;-66
2023/03/18 02:49:01;;;;;;;16.13;9.40;;;6.80;53.10;;;;;;5053359;28;20189;-71
2023/03/18 02:51:31;;;;;;;13.37;8.30;;;6.80;52.90;;;;;;5052047;28;20300;-65
2023/03/18 02:54:05;;;;;;;14.57;9.33;;;6.80;53.10;;;;;;5051997;28;20292;-70
2023/03/18 02:56:34;;;;;;;12.97;8.80;;;6.70;53.20;;;;;;5052095;28;20609;-66
2023/03/18 02:59:06;;;;;;;16.33;10.00;;;6.70;53.30;;;;;;5053515;28;20190;-65
2023/03/18 03:01:35;;;;;;;14.33;9.90;;;6.80;53.20;;;;;;5052910;28;20239;-68
2023/03/18 03:04:05;;;;;;;13.00;8.77;;;6.80;53.00;;;;;;5051748;28;20208;-67
2023/03/18 03:06:35;;;;;;;15.97;9.07;;;6.90;52.90;;;;;;5051453;28;20749;-68
2023/03/18 03:09:04;;;;;;;14.17;8.30;;;6.90;52.90;;;;;;5051781;28;20214;-68
2023/03/18 03:11:35;;;;;;;13.60;8.60;;;6.90;52.80;;;;;;5051432;28;20252;-69
2023/03/18 03:14:16;;;;;;;19.53;9.37;;;6.90;52.70;;;;;;5052722;28;20587;-69
2023/03/18 03:16:47;;;;;;;16.17;8.70;;;6.80;52.70;;;;;;5051464;28;20229;-69
2023/03/18 03:19:17;;;;;;;16.50;8.80;;;6.90;52.70;;;;;;5051365;28;20305;-67
2023/03/18 03:21:45;;;;;;;16.43;9.50;;;6.90;52.50;;;;;;5051394;28;20676;-67
2023/03/18 03:24:14;;;;;;;15.07;9.40;;;6.80;52.40;;;;;;5052736;28;20202;-66
2023/03/18 03:26:43;;;;;;;16.40;9.43;;;6.70;52.70;;;;;;5052398;28;20228;-68
2023/03/18 03:29:12;;;;;;;12.70;8.30;;;6.80;52.60;;;;;;5051404;28;20205;-66
2023/03/18 03:31:43;;;;;;;12.90;9.10;;;6.80;52.40;;;;;;5050832;28;20198;-69
2023/03/18 03:34:12;;;;;;;16.03;9.17;;;6.70;52.70;;;;;;5051483;28;20317;-66
2023/03/18 03:36:40;;;;;;;15.70;8.93;;;6.70;52.60;;;;;;5051125;28;20202;-67
2023/03/18 03:39:09;;;;;;;16.27;9.30;;;6.70;52.40;;;;;;5051033;28;20255;-66
2023/03/18 03:41:38;;;;;;;13.03;8.77;;;6.70;52.50;;;;;;5052127;28;20220;-68
2023/03/18 03:44:06;;;;;;;12.87;9.50;;;6.80;52.50;;;;;;5052208;28;20189;-65
2023/03/18 03:46:36;;;;;;;16.47;9.37;;;6.70;52.40;;;;;;5052210;28;20230;-66
2023/03/18 03:49:06;;;;;;;13.83;8.13;;;6.70;52.50;;;;;;5050848;28;20228;-69
2023/03/18 03:51:35;;;;;;;14.40;9.57;;;6.60;52.40;;;;;;5050873;28;20206;-66
2023/03/18 03:54:04;;;;;;;15.70;8.77;;;6.60;52.70;;;;;;5052059;28;20206;-65
2023/03/18 03:56:33;;;;;;;14.13;9.07;;;6.70;52.50;;;;;;5051755;28;20194;-69
2023/03/18 03:59:03;;;;;;;13.87;8.40;;;6.60;52.50;;;;;;5062154;28;20205;-66
2023/03/18 04:01:52;;;;;;;12.03;8.80;;;6.70;52.60;;;;;;5061423;28;20240;-65
2023/03/18 04:04:22;;;;;;;14.33;9.27;;;6.80;52.30;;;;;;5050686;28;20737;-69
2023/03/18 04:06:51;;;;;;;14.50;9.17;;;6.80;52.20;;;;;;5070220;28;20225;-66
2023/03/18 04:09:21;;;;;;;13.33;9.30;;;6.60;52.20;;;;;;5071299;28;20205;-64
2023/03/18 04:11:50;;;;;;;13.40;8.30;;;6.60;52.50;;;;;;5072358;28;20683;-67
2023/03/18 04:14:19;;;;;;;12.87;8.00;;;6.60;52.50;;;;;;5071214;28;20201;-67
2023/03/18 04:16:47;;;;;;;14.77;9.50;;;6.60;52.50;;;;;;5071187;28;20583;-67
2023/03/18 04:19:16;;;;;;;13.87;9.50;;;6.60;52.50;;;;;;5071056;28;20295;-68
2023/03/18 04:21:46;;;;;;;12.00;8.80;;;6.60;52.70;;;;;;5072272;28;20197;-67
2023/03/18 04:24:16;;;;;;;14.87;8.33;;;6.70;52.70;;;;;;5071186;28;20225;-67
2023/03/18 04:26:45;;;;;;;14.10;9.03;;;6.80;52.50;;;;;;5070757;28;20658;-66
2023/03/18 04:29:14;;;;;;;13.33;8.57;;;6.70;52.40;;;;;;5071296;28;20229;-66
2023/03/18 04:31:43;;;;;;;15.03;9.27;;;6.60;52.50;;;;;;5070996;28;20225;-67
2023/03/18 04:34:12;;;;;;;15.83;8.97;;;6.50;52.80;;;;;;5070844;28;20193;-67
2023/03/18 04:36:41;;;;;;;13.20;10.10;;;6.70;53.00;;;;;;5071017;28;20207;-66
2023/03/18 04:39:11;;;;;;;12.90;8.90;;;6.60;52.80;;;;;;5070824;28;20200;-65
2023/03/18 04:41:40;;;;;;;15.03;8.37;;;6.40;52.90;;;;;;5070067;28;20247;-68
2023/03/18 04:44:09;;;;;;;14.37;9.07;;;6.40;53.10;;;;;;5053021;28;20730;-67
2023/03/18 04:46:42;;;;;;;13.60;9.20;;;6.40;53.20;;;;;;5061797;28;20225;-66
2023/03/18 04:49:11;;;;;;;12.93;9.17;;;6.50;53.30;;;;;;5065181;28;20713;-66
2023/03/18 04:51:41;;;;;;;13.83;8.53;;;6.50;53.30;;;;;;5050846;28;20229;-66
2023/03/18 04:54:20;;;;;;;14.30;9.00;;;6.50;53.30;;;;;;5050804;28;20221;-66
2023/03/18 04:56:52;;;;;;;17.07;9.30;;;6.50;53.30;;;;;;5060642;28;20213;-66
2023/03/18 04:59:21;;;;;;;15.37;9.40;;;6.40;53.20;;;;;;5070595;28;20197;-65
2023/03/18 05:01:52;;;;;;;16.27;9.57;;;6.30;53.40;;;;;;5070373;28;20311;-66
2023/03/18 05:04:22;;;;;;;14.17;8.87;;;6.30;53.70;;;;;;5071653;28;20291;-66
2023/03/18 05:06:53;;;;;;;18.33;8.47;;;6.30;53.60;;;;;;5070321;28;20787;-68
2023/03/18 05:09:30;;;;;;;14.00;8.63;;;6.20;53.90;;;;;;5070494;28;20232;-68
2023/03/18 05:11:59;;;;;;;16.57;9.23;;;6.20;54.00;;;;;;5070329;28;20288;-67
2023/03/18 05:14:33;;;;;;;15.77;9.43;;;6.30;54.00;;;;;;5070283;28;20197;-65
2023/03/18 05:17:03;;;;;;;14.93;8.53;;;6.30;53.90;;;;;;5070321;28;20224;-66
2023/03/18 05:19:34;;;;;;;14.67;9.13;;;6.20;53.90;;;;;;5070228;28;20196;-67
2023/03/18 05:22:12;;;;;;;13.07;9.47;;;6.20;54.00;;;;;;5070370;28;20197;-65
2023/03/18 05:24:43;;;;;;;15.87;9.47;;;6.30;54.00;;;;;;5070429;28;20608;-66
2023/03/18 05:27:12;;;;;;;12.87;9.13;;;6.40;54.00;;;;;;5071488;28;20286;-64
2023/03/18 05:29:44;;;;;;;16.83;9.23;;;6.20;54.00;;;;;;5070131;28;20193;-67
2023/03/18 05:32:20;;;;;;;17.57;9.37;;;6.10;54.30;;;;;;5070256;28;20219;-66
2023/03/18 05:34:54;;;;;;;15.87;10.03;;;6.20;54.50;;;;;;5070119;28;20696;-66
2023/03/18 05:37:24;;;;;;;14.37;9.03;;;6.20;54.50;;;;;;5065603;28;20205;-66
2023/03/18 05:40:08;;;;;;;12.30;9.13;;;6.20;54.50;;;;;;5066267;28;20201;-65
2023/03/18 05:42:39;;;;;;;12.67;8.77;;;6.30;54.50;;;;;;5049849;28;20244;-66
2023/03/18 05:45:25;;;;;;;14.53;8.60;;;6.30;54.30;;;;;;5051613;28;20232;-64
2023/03/18 05:47:56;;;;;;;15.07;10.13;;;6.20;54.20;;;;;;5068214;28;20698;-65
2023/03/18 05:50:29;;;;;;;15.90;8.90;;;6.30;54.30;;;;;;5054988;28;20209;-64
2023/03/18 05:52:59;;;;;;;16.43;9.53;;;6.30;54.50;;;;;;5060593;28;20204;-67
2023/03/18 05:55:34;;;;;;;13.83;8.53;;;6.20;54.50;;;;;;5071673;28;20205;-69
2023/03/18 05:58:03;;;;;;;13.37;9.53;;;6.20;54.50;;;;;;5072427;28;20225;-66
2023/03/18 06:00:33;;;;;;;14.70;8.63;;;6.20;54.60;;;;;;5053547;28;20590;-65
2023/03/18 06:03:02;;;;;;;15.67;9.53;;;6.20;54.70;;;;;;5053727;28;20198;-66
2023/03/18 06:05:31;;;;;;;15.90;9.57;;;6.20;54.70;;;;;;5053532;28;20676;-65
2023/03/18 06:08:00;;;;;;;13.13;8.23;;;6.30;54.70;;;;;;5070145;28;20278;-66
2023/03/18 06:10:31;;;;;;;16.27;9.37;;;6.40;54.50;;;;;;5073788;28;20208;-65
2023/03/18 06:13:01;;;;;;;13.23;8.83;;;6.40;54.60;;;;;;5073513;28;20216;-67
2023/03/18 06:15:30;;;;;;;14.60;8.60;;;6.40;54.40;;;;;;5073584;28;20228;-69
2023/03/18 06:18:00;;;;;;;13.90;9.57;;;6.60;54.40;;;;;;5072650;28;20209;-69
2023/03/18 06:20:29;;;;;;;17.23;9.50;;;6.70;54.20;;;;;;5058832;28;20300;-66
2023/03/18 06:22:58;;;;;;;16.57;9.23;;;6.60;53.90;;;;;;5054829;28;20198;-66
2023/03/18 06:25:28;;;;;;;13.83;8.67;;;6.80;54.10;;;;;;5053487;28;20198;-68
2023/03/18 06:27:57;;;;;;;15.87;9.60;;;6.70;53.90;;;;;;5062547;28;20233;-67
2023/03/18 06:30:31;;;;;;;16.20;9.70;;;6.60;54.20;;;;;;5073383;28;20670;-66
2023/03/18 06:33:00;;;;;;;16.43;10.03;;;6.70;54.10;;;;;;5070965;28;20233;-66
2023/03/18 06:35:30;;;;;;;18.77;10.97;;;6.80;54.10;;;;;;5086905;28;20206;-65
2023/03/18 06:37:59;;;;;;;14.70;9.00;;;6.90;53.90;;;;;;5053196;28;20204;-68
2023/03/18 06:40:27;;;;;;;14.20;10.43;;;6.80;53.90;;;;;;5053261;28;20225;-64
2023/03/18 06:42:57;;;;;;;19.33;10.30;;;6.70;54.20;;;;;;5053014;28;20212;-69
2023/03/18 06:45:39;;;;;;;11.63;9.50;;;6.70;54.30;;;;;;5055200;28;20218;-68
2023/03/18 06:48:09;;;;;;;12.17;9.33;;;6.80;54.40;;;;;;5072787;28;20224;-66
2023/03/18 06:50:42;;;;;;;14.30;9.63;;;6.90;54.00;;;;;;5072892;28;20205;-69
2023/03/18 06:53:19;;;;;;;15.10;10.20;;;6.80;54.00;;;;;;5072757;28;20229;-68
2023/03/18 06:55:49;;;;;;;14.10;9.80;;;6.80;54.00;;;;;;5072761;28;20296;-67
2023/03/18 06:58:21;;;;;;;16.43;9.47;;;6.90;54.30;;;;;;5073802;28;20205;-66
2023/03/18 07:01:02;;;;;;;15.10;9.13;;;7.00;54.00;;;;;;5070880;28;20636;-67
2023/03/18 07:03:37;;;;;;;15.60;10.17;;;7.00;53.90;;;;;;5072816;28;20572;-67
2023/03/18 07:06:08;;;;;;;14.10;8.57;;;7.20;53.70;;;;;;5071125;28;20200;-67
2023/03/18 07:08:39;;;;;;;16.77;9.60;;;7.10;53.50;;;;;;5066029;28;20259;-65
2023/03/18 07:11:08;;;;;;;14.13;9.83;;;7.20;53.60;;;;;;5070303;28;20217;-65
2023/03/18 07:13:40;;;;;;;13.73;9.20;;;7.60;53.40;;;;;;5072253;28;20292;-65
2023/03/18 07:16:18;;;;;;;16.47;11.00;;;7.70;52.50;;;;;;5063877;28;20202;-66
2023/03/18 07:18:46;;;;;;;14.37;9.80;;;7.60;52.70;;;;;;5052309;28;20284;-66
2023/03/18 07:21:15;;;;;;;18.07;10.00;;;7.50;52.90;;;;;;5052334;28;20202;-65
2023/03/18 07:23:45;;;;;;;14.40;9.13;;;7.40;52.80;;;;;;5052641;28;20222;-68
2023/03/18 07:26:13;;;;;;;13.57;9.63;;;7.60;52.80;;;;;;5059432;28;20258;-67
2023/03/18 07:28:42;;;;;;;12.20;9.67;;;7.80;52.70;;;;;;5065741;28;20585;-69
2023/03/18 07:31:11;;;;;;;12.83;9.67;;;7.90;52.00;;;;;;5063426;28;20572;-66
2023/03/18 07:33:41;;;;;;;17.30;12.03;;;8.10;51.80;;;;;;5053857;28;20190;-65
2023/03/18 07:36:10;;;;;;;18.20;11.07;;;8.20;51.70;;;;;;5067699;28;20237;-70
2023/03/18 07:38:39;;;;;;;16.17;9.57;;;8.20;51.50;;;;;;5073850;28;20193;-65
2023/03/18 07:41:08;;;;;;;20.60;12.03;;;8.00;51.60;;;;;;5073575;28;20195;-66
2023/03/18 07:43:38;;;;;;;17.13;11.53;;;7.80;51.80;;;;;;5073168;28;20190;-67
2023/03/18 07:46:07;;;;;;;13.10;9.87;;;7.70;51.70;;;;;;5073428;28;20198;-66
2023/03/18 07:48:36;;;;;;;14.70;9.33;;;8.10;51.80;;;;;;5073622;28;20227;-67
2023/03/18 07:51:07;;;;;;;11.97;8.70;;;8.40;51.30;;;;;;5073540;28;20201;-66
2023/03/18 07:53:36;;;;;;;14.67;9.70;;;8.80;50.50;;;;;;5065957;28;20205;-64
2023/03/18 07:56:06;;;;;;;19.43;13.27;;;8.80;49.80;;;;;;5053027;28;20191;-66
2023/03/18 07:58:35;;;;;;;13.87;9.23;;;8.80;50.00;;;;;;5057725;28;20288;-66
2023/03/18 08:01:04;;;;;;;12.90;8.90;;;8.90;50.00;;;;;;5065868;28;20224;-67
2023/03/18 08:03:33;;;;;;;15.90;9.50;;;9.00;49.70;;;;;;5073216;28;20220;-69
2023/03/18 08:06:01;;;;;;;13.07;9.43;;;9.00;49.70;;;;;;5070606;28;20190;-65
2023/03/18 08:08:32;;;;;;;15.33;9.53;;;8.90;49.80;;;;;;5061425;28;20257;-65
2023/03/18 08:11:01;;;;;;;15.83;11.20;;;9.30;49.70;;;;;;5050520;28;20198;-67
2023/03/18 08:13:29;;;;;;;13.67;9.13;;;9.90;49.30;;;;;;5061151;28;20297;-68
2023/03/18 08:15:58;;;;;;;12.33;9.67;;;9.60;48.40;;;;;;5060978;28;20209;-70
2023/03/18 08:18:27;;;;;;;19.07;9.23;;;9.40;48.40;;;;;;5051067;28;20201;-66
2023/03/18 08:20:55;;;;;;;36.60;19.20;;;9.20;48.40;;;;;;5052861;28;20200;-69
2023/03/18 08:23:24;;;;;;;14.77;8.83;;;9.30;49.30;;;;;;5056121;28;20225;-65
2023/03/18 08:25:54;;;;;;;15.80;9.33;;;8.80;49.00;;;;;;5067244;28;20199;-65
2023/03/18 08:28:24;;;;;;;12.03;8.47;;;9.00;49.50;;;;;;5063985;28;20229;-64
2023/03/18 08:30:55;;;;;;;13.20;8.77;;;8.70;49.40;;;;;;5070836;28;20252;-64
2023/03/18 08:33:25;;;;;;;13.90;8.73;;;8.80;49.40;;;;;;5072696;28;20206;-66
2023/03/18 08:35:54;;;;;;;13.03;8.87;;;8.80;49.40;;;;;;5072675;28;20220;-67
2023/03/18 08:38:23;;;;;;;16.53;9.80;;;9.00;49.50;;;;;;5072874;28;20197;-64
2023/03/18 08:40:52;;;;;;;14.30;8.63;;;9.10;49.00;;;;;;5063283;28;20608;-66
2023/03/18 08:43:22;;;;;;;15.17;8.47;;;9.10;49.00;;;;;;5057315;28;20612;-68
2023/03/18 08:45:53;;;;;;;17.47;10.17;;;9.00;48.60;;;;;;5063486;28;20233;-66
2023/03/18 08:48:23;;;;;;;15.60;8.97;;;8.90;49.10;;;;;;5072485;28;20666;-67
2023/03/18 08:50:52;;;;;;;12.73;8.93;;;9.30;48.90;;;;;;5072616;28;20200;-66
2023/03/18 08:53:21;;;;;;;11.83;8.00;;;9.50;48.60;;;;;;5072412;28;20254;-64
2023/03/18 08:55:49;;;;;;;14.17;9.10;;;9.40;48.40;;;;;;5067694;28;20207;-68
2023/03/18 08:58:18;;;;;;;13.93;8.37;;;9.60;48.40;;;;;;5063286;28;20203;-66
2023/03/18 09:00:49;;;;;;;11.67;7.83;;;10.00;47.90;;;;;;5057169;28;20222;-72
2023/03/18 09:03:18;;;;;;;16.30;9.57;;;10.10;47.30;;;;;;5068025;28;20281;-68
2023/03/18 09:05:48;;;;;;;13.03;8.23;;;10.00;47.70;;;;;;5055272;28;20666;-66
2023/03/18 09:08:17;;;;;;;14.90;9.63;;;9.90;47.40;;;;;;5052152;28;20216;-66
2023/03/18 09:10:46;;;;;;;14.80;8.87;;;10.10;47.50;;;;;;5051766;28;20200;-68
2023/03/18 09:13:15;;;;;;;11.43;8.50;;;10.50;47.30;;;;;;5052039;28;20204;-66
2023/03/18 09:15:44;;;;;;;17.90;9.13;;;10.20;47.40;;;;;;5052287;28;20294;-68
2023/03/18 09:18:14;;;;;;;15.10;8.60;;;10.20;47.60;;;;;;5052197;28;20210;-67
2023/03/18 09:20:44;;;;;;;15.20;9.47;;;10.30;47.70;;;;;;5052155;28;20197;-67
2023/03/18 09:23:14;;;;;;;14.43;8.93;;;10.30;47.50;;;;;;5051686;28;20211;-67
2023/03/18 09:25:43;;;;;;;14.73;8.93;;;10.10;47.90;;;;;;5051818;28;20266;-68
2023/03/18 09:28:13;;;;;;;15.03;9.60;;;10.20;48.20;;;;;;5051725;28;20215;-65
2023/03/18 09:30:42;;;;;;;14.93;10.13;;;10.00;48.20;;;;;;5056715;28;20208;-65
2023/03/18 09:33:11;;;;;;;54.17;30.57;;;9.70;48.70;;;;;;5071701;28;20198;-68
2023/03/18 09:35:41;;;;;;;29.57;18.50;;;9.60;49.30;;;;;;5065852;28;20196;-64
2023/03/18 09:38:15;;;;;;;24.97;15.90;;;9.80;49.50;;;;;;5062599;28;20211;-65
2023/03/18 09:40:55;;;;;;;13.77;8.93;;;10.00;49.40;;;;;;5066666;28;20211;-64
2023/03/18 09:43:52;;;;;;;13.30;9.43;;;9.60;49.20;;;;;;5056185;28;20227;-65
2023/03/18 09:46:33;;;;;;;17.47;11.33;;;9.60;49.60;;;;;;5055925;28;20199;-66
2023/03/18 09:49:24;;;;;;;16.17;9.40;;;9.50;49.80;;;;;;5055779;28;20225;-64
2023/03/18 09:52:02;;;;;;;12.33;9.07;;;9.70;49.00;;;;;;5055930;28;20863;-64
2023/03/18 09:54:38;;;;;;;11.60;8.10;;;9.70;49.20;;;;;;5055172;28;20246;-66
2023/03/18 09:57:12;;;;;;;14.37;9.27;;;9.70;48.80;;;;;;5064232;28;20290;-66
2023/03/18 09:59:45;;;;;;;13.97;9.30;;;10.10;48.70;;;;;;5075215;28;20206;-65
2023/03/18 10:02:22;;;;;;;13.07;8.13;;;10.70;48.10;;;;;;5075237;28;20678;-68
2023/03/18 10:04:56;;;;;;;11.30;8.50;;;10.90;47.00;;;;;;5065448;28;20208;-69
2023/03/18 10:07:41;;;;;;;12.70;9.00;;;10.70;47.20;;;;;;5071710;28;20205;-65
2023/03/18 10:10:17;;;;;;;21.93;9.90;;;11.00;47.00;;;;;;5073445;28;20219;-69
2023/03/18 10:12:51;;;;;;;12.73;9.40;;;11.50;46.30;;;;;;5075443;28;20199;-65
2023/03/18 10:15:26;;;;;;;13.40;9.87;;;11.90;45.70;;;;;;5075096;28;20196;-66
2023/03/18 10:17:59;;;;;;;14.67;8.27;;;11.90;45.20;;;;;;5074949;28;20237;-72
2023/03/18 10:20:37;;;;;;;16.10;9.63;;;11.90;45.10;;;;;;5074945;28;20204;-65
2023/03/18 10:23:20;;;;;;;15.43;9.40;;;11.30;45.80;;;;;;5074788;28;20258;-64
2023/03/18 10:25:53;;;;;;;12.03;8.50;;;11.30;45.90;;;;;;5073458;28;20205;-68
2023/03/18 10:28:41;;;;;;;14.87;9.73;;;11.70;45.60;;;;;;5074523;28;20193;-69
2023/03/18 10:31:25;;;;;;;15.67;9.07;;;11.80;45.40;;;;;;5074873;28;20943;-70
2023/03/18 10:33:58;;;;;;;19.93;12.90;;;12.30;44.90;;;;;;5074830;28;20204;-65
2023/03/18 10:36:37;;;;;;;14.00;9.93;;;13.20;44.50;;;;;;5074593;28;20283;-69
2023/03/18 10:39:13;;;;;;;19.23;12.40;;;13.40;43.00;;;;;;5072793;28;20220;-67
2023/03/18 10:41:43;;;;;;;14.00;9.23;;;13.70;43.40;;;;;;5073382;28;20646;-66
2023/03/18 10:44:19;;;;;;;15.10;9.47;;;13.80;42.50;;;;;;5074352;28;20229;-66
2023/03/18 10:46:52;;;;;;;15.27;9.07;;;13.00;42.40;;;;;;5074269;28;20189;-67
2023/03/18 10:49:25;;;;;;;13.43;8.70;;;13.30;43.10;;;;;;5074086;28;20288;-65
2023/03/18 10:51:57;;;;;;;12.43;8.87;;;13.10;42.90;;;;;;5074183;28;20600;-69
2023/03/18 10:54:32;;;;;;;16.23;9.60;;;13.10;43.10;;;;;;5074302;28;20204;-65
2023/03/18 10:57:01;;;;;;;14.27;8.67;;;12.90;44.00;;;;;;5074524;28;20832;-67
2023/03/18 10:59:30;;;;;;;14.77;9.90;;;13.40;43.10;;;;;;5074184;28;20696;-67
2023/03/18 11:02:03;;;;;;;17.90;12.00;;;13.50;43.20;;;;;;5074105;28;20255;-67
2023/03/18 11:04:38;;;;;;;12.83;9.00;;;13.90;43.00;;;;;;5074233;28;20323;-67
2023/03/18 11:07:15;;;;;;;11.70;9.27;;;14.30;41.90;;;;;;5074043;28;20198;-66
2023/03/18 11:09:45;;;;;;;15.10;10.43;;;13.90;41.80;;;;;;5073773;28;20636;-66
2023/03/18 11:12:18;;;;;;;11.37;7.90;;;14.30;41.80;;;;;;5073815;28;20249;-67
2023/03/18 11:14:48;;;;;;;16.37;9.03;;;15.00;41.90;;;;;;5073838;28;20594;-66
2023/03/18 11:17:22;;;;;;;13.77;8.70;;;15.40;40.40;;;;;;5073815;28;20703;-66
2023/03/18 11:20:06;;;;;;;17.03;9.20;;;15.50;39.90;;;;;;5073901;28;20198;-66
2023/03/18 11:22:37;;;;;;;13.07;8.77;;;15.60;40.00;;;;;;5073734;28;20200;-66
2023/03/18 11:25:15;;;;;;;13.40;9.23;;;15.30;40.10;;;;;;5073695;28;20197;-67
2023/03/18 11:27:47;;;;;;;12.17;8.30;;;14.70;40.60;;;;;;5073474;28;20245;-66
2023/03/18 11:30:19;;;;;;;14.87;8.53;;;14.20;41.40;;;;;;5073458;28;20574;-69
2023/03/18 11:33:05;;;;;;;17.10;9.70;;;13.90;42.30;;;;;;5073627;28;20283;-68
2023/03/18 11:35:40;;;;;;;13.90;9.20;;;13.60;43.10;;;;;;5073462;28;20222;-67
2023/03/18 11:38:16;;;;;;;13.83;9.90;;;13.30;43.40;;;;;;5072212;28;20208;-70
2023/03/18 11:40:46;;;;;;;13.70;9.63;;;13.40;43.20;;;;;;5073282;28;20302;-66
2023/03/18 11:43:19;;;;;;;14.97;9.33;;;13.20;43.60;;;;;;5073272;28;20259;-68
2023/03/18 11:45:52;;;;;;;12.60;9.37;;;13.40;43.80;;;;;;5073108;28;20293;-66
2023/03/18 11:48:29;;;;;;;16.47;10.23;;;13.70;43.40;;;;;;5065722;28;20195;-68
2023/03/18 11:51:24;;;;;;;18.37;11.83;;;14.00;43.00;;;;;;5064752;28;20215;-68
2023/03/18 11:54:37;;;;;;;15.77;9.10;;;14.00;43.50;;;;;;5030580;28;20794;-65
2023/03/18 11:57:14;;;;;;;13.77;9.07;;;13.80;43.70;;;;;;4971968;28;20279;-67
2023/03/18 11:59:55;;;;;;;15.27;9.73;;;13.70;43.10;;;;;;4971820;28;20214;-67
2023/03/18 12:02:38;;;;;;;27.73;16.97;;;13.60;43.40;;;;;;4972010;28;20264;-67
2023/03/18 12:05:34;;;;;;;20.10;10.60;;;13.80;44.00;;;;;;4971878;28;20211;-67
2023/03/18 12:08:13;;;;;;;13.30;8.73;;;13.30;43.50;;;;;;4972034;28;20215;-68
2023/03/18 12:10:47;;;;;;;13.63;8.60;;;13.00;44.10;;;;;;4971595;28;20746;-64
2023/03/18 12:13:30;;;;;;;12.33;8.13;;;13.00;44.00;;;;;;4971857;28;20611;-67
2023/03/18 12:16:07;;;;;;;12.47;7.90;;;13.00;44.00;;;;;;4977159;28;20210;-70
2023/03/18 12:18:51;;;;;;;16.87;9.07;;;12.80;44.20;;;;;;4983203;28;20205;-69
2023/03/18 12:21:40;;;;;;;13.73;8.10;;;12.70;43.90;;;;;;4971698;28;20218;-68
2023/03/18 12:24:31;;;;;;;12.03;8.07;;;12.60;44.40;;;;;;4971568;28;20570;-68
2023/03/18 12:27:09;;;;;;;12.27;8.80;;;13.10;44.50;;;;;;4971633;28;20263;-68
2023/03/18 12:30:08;;;;;;;11.37;7.93;;;13.20;44.00;;;;;;4971328;28;20199;-67
2023/03/18 12:32:42;;;;;;;11.10;8.57;;;12.60;44.40;;;;;;4985507;28;20218;-68
2023/03/18 12:35:29;;;;;;;13.03;8.70;;;12.70;45.00;;;;;;5010490;28;20208;-68
2023/03/18 12:38:35;;;;;;;12.00;8.70;;;12.60;44.60;;;;;;5010304;28;20234;-67
2023/03/18 12:41:10;;;;;;;15.03;8.83;;;12.60;44.90;;;;;;5012009;28;20196;-68
2023/03/18 12:43:57;;;;;;;11.77;8.83;;;12.90;44.70;;;;;;5028727;28;20225;-68
2023/03/18 12:46:33;;;;;;;12.37;8.70;;;13.30;44.50;;;;;;5010191;28;20273;-68
2023/03/18 12:49:08;;;;;;;13.47;9.33;;;13.80;43.90;;;;;;5010317;28;20253;-68
2023/03/18 12:51:44;;;;;;;12.87;8.53;;;13.70;43.50;;;;;;5010178;28;20784;-68
2023/03/18 12:54:22;;;;;;;12.40;8.43;;;13.60;43.60;;;;;;5014206;28;20208;-67
2023/03/18 12:56:55;;;;;;;15.40;10.00;;;13.80;43.70;;;;;;5010532;28;20595;-66
2023/03/18 12:59:31;;;;;;;14.00;9.47;;;14.10;43.30;;;;;;5019376;28;20301;-71
2023/03/18 13:02:37;;;;;;;14.50;8.20;;;14.30;43.20;;;;;;5026582;28;20284;-68
2023/03/18 13:05:25;;;;;;;13.23;8.90;;;14.20;43.20;;;;;;4932007;29;20784;-67
2023/03/18 13:08:18;;;;;;;14.53;8.30;;;13.60;43.30;;;;;;4932495;29;20212;-67
2023/03/18 13:10:55;;;;;;;15.30;9.00;;;13.10;44.30;;;;;;4987513;28;20233;-66
2023/03/18 13:13:26;;;;;;;13.47;8.73;;;13.10;44.70;;;;;;4990334;28;20207;-66